Time;durP1;ratioP1;P1;durP2;ratioP2;P2;SDS_P1;SDS_P2;PMS_P1;PMS_P2;Temp;Humidity;BMP_temperature;BMP_pressure;BME280_temperature;BME280_humidity;BME280_pressure;Samples;Min_cycle;Max_cycle;Signal;HPM_P1;HPM_P2
2022/01/17 00:01:33;;;;;;;5.25;1.50;;;8.10;84.80;;;;;;5015447;28;20042;-29
2022/01/17 00:03:59;;;;;;;6.55;1.52;;;8.20;85.00;;;;;;5015609;28;20018;-38
2022/01/17 00:06:25;;;;;;;8.93;2.20;;;8.20;84.70;;;;;;5030423;28;20543;-29
2022/01/17 00:08:51;;;;;;;9.57;1.90;;;8.10;84.70;;;;;;5015163;28;20087;-29
2022/01/17 00:11:18;;;;;;;8.77;2.03;;;8.10;84.60;;;;;;5015309;28;20100;-29
2022/01/17 00:13:45;;;;;;;8.15;1.83;;;8.10;84.70;;;;;;5015426;28;20025;-29
2022/01/17 00:16:19;;;;;;;6.53;1.48;;;8.10;84.60;;;;;;5014925;28;20037;-30
2022/01/17 00:21:11;;;;;;;7.78;1.85;;;8.20;84.80;;;;;;5015316;28;20022;-30
2022/01/17 00:23:37;;;;;;;6.55;2.10;;;8.20;84.80;;;;;;5014962;28;20513;-29
2022/01/17 00:26:04;;;;;;;11.68;1.95;;;8.10;84.70;;;;;;5014977;28;20026;-30
2022/01/17 00:28:30;;;;;;;6.53;1.92;;;8.20;84.80;;;;;;5015164;28;20381;-36
2022/01/17 00:30:56;;;;;;;7.25;2.28;;;8.20;84.90;;;;;;5014783;28;20445;-29
2022/01/17 00:33:21;;;;;;;5.05;2.00;;;8.10;84.80;;;;;;5014677;28;20053;-30
2022/01/17 00:35:47;;;;;;;7.30;2.33;;;8.10;84.90;;;;;;5014503;28;20050;-30
2022/01/17 00:38:13;;;;;;;6.45;2.63;;;8.20;84.90;;;;;;5014218;28;20037;-30
2022/01/17 00:40:41;;;;;;;10.02;2.70;;;8.10;84.70;;;;;;5014526;28;20497;-30
2022/01/17 00:43:07;;;;;;;8.13;2.50;;;8.20;84.70;;;;;;5014506;28;20029;-29
2022/01/17 00:45:32;;;;;;;6.63;2.25;;;8.20;84.70;;;;;;5014556;28;20030;-31
2022/01/17 00:48:00;;;;;;;9.90;2.65;;;8.20;84.70;;;;;;5014458;28;20104;-29
2022/01/17 00:50:27;;;;;;;9.40;2.65;;;8.20;84.70;;;;;;5014468;28;20029;-33
2022/01/17 00:52:53;;;;;;;8.00;2.85;;;8.20;84.70;;;;;;5014432;28;20026;-29
2022/01/17 00:55:19;;;;;;;6.63;2.47;;;8.20;84.70;;;;;;5014316;28;20057;-30
2022/01/17 00:57:44;;;;;;;6.68;2.65;;;8.20;84.70;;;;;;5014452;28;20030;-28
2022/01/17 01:00:11;;;;;;;11.70;3.55;;;8.20;84.80;;;;;;5014271;28;20026;-29
2022/01/17 01:02:38;;;;;;;5.32;2.67;;;8.20;84.80;;;;;;5014336;28;20532;-30
2022/01/17 01:05:05;;;;;;;9.48;2.58;;;8.20;84.80;;;;;;5014220;28;20092;-30
2022/01/17 01:07:31;;;;;;;12.80;3.28;;;8.20;84.90;;;;;;5014107;28;20057;-28
2022/01/17 01:10:10;;;;;;;7.82;2.72;;;8.20;84.90;;;;;;5014021;28;20080;-30
2022/01/17 01:12:40;;;;;;;10.05;2.83;;;8.20;84.80;;;;;;5014117;28;20018;-30
2022/01/17 01:15:14;;;;;;;9.45;2.70;;;8.20;84.80;;;;;;5014031;28;20486;-29
2022/01/17 01:28:11;;;;;;;10.07;2.42;;;8.20;84.90;;;;;;5014022;28;20037;-32
2022/01/17 01:30:41;;;;;;;9.80;2.60;;;8.20;84.90;;;;;;5013682;28;20033;-31
2022/01/17 01:33:07;;;;;;;11.95;2.63;;;8.20;84.80;;;;;;5013836;28;20517;-30
2022/01/17 01:35:34;;;;;;;6.95;2.33;;;8.20;84.70;;;;;;5013511;28;20037;-30
2022/01/17 01:38:00;;;;;;;8.10;2.83;;;8.20;84.60;;;;;;5013675;28;20018;-30
2022/01/17 01:40:26;;;;;;;13.02;3.00;;;8.20;84.60;;;;;;5013570;28;20025;-33
2022/01/17 01:42:52;;;;;;;8.93;2.35;;;8.20;84.50;;;;;;5013607;28;20022;-30
2022/01/17 01:45:20;;;;;;;7.43;2.17;;;8.10;84.40;;;;;;5013494;28;20026;-29
2022/01/17 01:47:46;;;;;;;10.40;2.42;;;8.10;84.40;;;;;;5013456;28;20026;-29
2022/01/17 01:50:13;;;;;;;10.00;2.13;;;8.10;84.20;;;;;;5012694;28;20030;-29
2022/01/17 01:52:41;;;;;;;10.90;2.30;;;8.10;84.10;;;;;;5013723;28;20378;-31
2022/01/17 01:55:11;;;;;;;8.23;2.10;;;8.00;83.90;;;;;;5013574;28;20103;-30
2022/01/17 01:57:37;;;;;;;7.40;2.08;;;8.00;83.80;;;;;;5013478;28;20068;-36
2022/01/17 02:00:06;;;;;;;7.07;2.10;;;8.00;83.80;;;;;;5013318;28;20046;-31
2022/01/17 02:02:32;;;;;;;10.63;2.13;;;8.00;83.80;;;;;;5013339;28;20572;-29
2022/01/17 02:04:57;;;;;;;6.47;1.50;;;8.00;83.60;;;;;;5012017;28;20105;-30
2022/01/17 02:07:23;;;;;;;9.57;2.13;;;8.00;83.40;;;;;;5013199;28;20037;-30
2022/01/17 02:09:49;;;;;;;7.55;1.63;;;7.90;82.80;;;;;;5012028;28;20025;-29
2022/01/17 02:12:20;;;;;;;6.57;2.08;;;7.90;82.80;;;;;;5013208;28;20026;-30
2022/01/17 02:14:46;;;;;;;12.05;2.88;;;7.90;82.90;;;;;;5013414;28;20449;-30
2022/01/17 02:17:12;;;;;;;7.90;1.50;;;7.90;82.40;;;;;;5013148;28;20433;-29
2022/01/17 02:19:44;;;;;;;6.50;1.48;;;7.90;82.60;;;;;;5013166;28;20025;-30
2022/01/17 02:22:11;;;;;;;8.80;1.58;;;7.90;82.40;;;;;;5013073;28;20018;-29
2022/01/17 02:24:37;;;;;;;8.57;1.70;;;7.80;82.30;;;;;;5013369;28;20478;-30
2022/01/17 02:27:02;;;;;;;7.15;2.17;;;7.90;82.40;;;;;;5011779;28;20029;-30
2022/01/17 02:29:30;;;;;;;10.55;1.95;;;7.80;82.20;;;;;;5012930;28;20441;-30
2022/01/17 02:31:55;;;;;;;9.48;2.17;;;7.80;82.00;;;;;;5013285;28;20018;-31
2022/01/17 02:34:21;;;;;;;12.07;1.70;;;7.80;82.00;;;;;;5012779;28;20120;-32
2022/01/17 02:36:47;;;;;;;7.90;1.55;;;7.80;81.90;;;;;;5012929;28;20105;-30
2022/01/17 02:39:14;;;;;;;12.15;1.80;;;7.80;81.80;;;;;;5013189;28;20025;-31
2022/01/17 02:41:42;;;;;;;5.78;1.60;;;7.80;81.80;;;;;;5013245;28;20489;-30
2022/01/17 02:44:08;;;;;;;8.05;1.60;;;7.80;81.50;;;;;;5013156;28;20018;-31
2022/01/17 02:46:34;;;;;;;9.88;2.15;;;7.80;81.60;;;;;;5012966;28;20049;-28
2022/01/17 02:49:04;;;;;;;6.85;1.30;;;7.80;81.70;;;;;;5013014;28;20101;-32
2022/01/17 02:51:30;;;;;;;8.70;1.90;;;7.80;81.60;;;;;;5013114;28;20470;-30
2022/01/17 02:53:56;;;;;;;8.63;1.50;;;7.80;81.50;;;;;;5012849;28;20026;-30
2022/01/17 02:56:22;;;;;;;10.57;2.03;;;7.80;81.50;;;;;;5012980;28;20030;-30
2022/01/17 02:58:48;;;;;;;7.70;1.95;;;7.80;81.30;;;;;;5012920;28;20022;-29
2022/01/17 03:01:15;;;;;;;6.30;1.40;;;7.80;81.20;;;;;;5029176;28;20030;-32
2022/01/17 03:03:42;;;;;;;6.05;1.42;;;7.70;80.80;;;;;;5016407;28;20478;-30
2022/01/17 03:06:09;;;;;;;8.52;1.52;;;7.70;80.90;;;;;;5016684;28;20112;-32
2022/01/17 03:08:35;;;;;;;8.48;2.00;;;7.70;80.80;;;;;;5016551;28;20021;-29
2022/01/17 03:11:05;;;;;;;6.43;1.50;;;7.70;80.80;;;;;;5016355;28;20030;-30
2022/01/17 03:13:34;;;;;;;9.98;1.55;;;7.70;80.80;;;;;;5016203;28;20026;-32
2022/01/17 03:16:04;;;;;;;9.63;1.77;;;7.70;81.00;;;;;;5016310;28;20438;-30
2022/01/17 03:18:32;;;;;;;8.10;1.77;;;7.60;81.10;;;;;;5016427;28;20029;-30
2022/01/17 03:20:59;;;;;;;12.65;1.75;;;7.60;81.20;;;;;;5016116;28;20022;-29
2022/01/17 03:23:26;;;;;;;5.95;1.52;;;7.50;81.00;;;;;;5016111;28;20030;-29
2022/01/17 03:25:52;;;;;;;9.55;1.90;;;7.50;81.10;;;;;;5016218;28;20382;-29
2022/01/17 03:28:17;;;;;;;11.25;1.60;;;7.50;81.30;;;;;;5016177;28;20018;-31
2022/01/17 03:30:43;;;;;;;6.75;1.40;;;7.50;81.40;;;;;;5015961;28;20485;-34
2022/01/17 03:33:11;;;;;;;8.80;1.45;;;7.40;81.60;;;;;;5015973;28;20045;-33
2022/01/17 03:35:39;;;;;;;9.52;1.58;;;7.40;81.80;;;;;;5030847;28;20054;-29
2022/01/17 03:38:06;;;;;;;9.23;2.20;;;7.30;81.90;;;;;;5030995;28;20029;-29
2022/01/17 03:40:32;;;;;;;7.70;1.77;;;7.30;81.90;;;;;;5015742;28;20026;-30
2022/01/17 03:42:58;;;;;;;7.28;1.48;;;7.20;82.00;;;;;;5015963;28;20489;-30
2022/01/17 03:45:23;;;;;;;6.20;1.50;;;7.10;82.10;;;;;;5015593;28;20026;-29
2022/01/17 03:47:50;;;;;;;10.38;1.85;;;7.10;82.30;;;;;;5015844;28;20477;-30
2022/01/17 03:50:18;;;;;;;8.57;1.70;;;7.10;82.10;;;;;;5015886;28;20096;-30
2022/01/17 03:52:44;;;;;;;11.80;1.67;;;7.00;82.30;;;;;;5015568;28;20080;-29
2022/01/17 03:55:13;;;;;;;6.30;1.63;;;7.00;82.30;;;;;;5015375;28;20029;-29
2022/01/17 03:57:39;;;;;;;8.75;1.80;;;6.90;82.40;;;;;;5015488;28;20449;-29
2022/01/17 04:00:06;;;;;;;6.15;1.77;;;6.90;82.50;;;;;;5015615;28;20042;-32
2022/01/17 04:02:32;;;;;;;11.32;2.03;;;6.80;82.50;;;;;;5015301;28;20038;-29
2022/01/17 04:04:57;;;;;;;8.18;1.73;;;6.80;82.60;;;;;;5015360;28;20034;-28
2022/01/17 04:07:23;;;;;;;7.35;1.40;;;6.80;82.70;;;;;;5015235;28;20118;-29
2022/01/17 04:09:48;;;;;;;11.07;1.80;;;6.70;82.70;;;;;;5015138;28;20021;-28
2022/01/17 04:12:14;;;;;;;9.23;1.80;;;6.70;82.90;;;;;;5014281;28;20368;-29
2022/01/17 04:14:40;;;;;;;8.48;1.88;;;6.70;82.90;;;;;;5015183;28;20034;-35
2022/01/17 04:17:06;;;;;;;7.95;1.80;;;6.70;83.00;;;;;;5014997;28;20026;-34
2022/01/17 04:19:33;;;;;;;6.13;1.50;;;6.60;83.00;;;;;;5015003;28;20022;-30
2022/01/17 04:21:59;;;;;;;8.75;1.60;;;6.60;83.00;;;;;;5015204;28;20073;-30
2022/01/17 04:24:25;;;;;;;13.43;2.20;;;6.50;83.00;;;;;;5014879;28;20419;-30
2022/01/17 04:26:50;;;;;;;11.15;1.50;;;6.50;83.10;;;;;;5014898;28;20030;-29
2022/01/17 04:29:16;;;;;;;7.25;1.80;;;6.50;83.10;;;;;;5014840;28;20048;-33
2022/01/17 04:31:41;;;;;;;12.57;1.88;;;6.40;83.10;;;;;;5014715;28;20018;-31
2022/01/17 04:34:07;;;;;;;14.10;2.22;;;6.50;83.30;;;;;;5014536;28;20046;-31
2022/01/17 04:36:33;;;;;;;9.23;2.10;;;6.50;83.10;;;;;;5014694;28;20394;-31
2022/01/17 04:38:58;;;;;;;8.57;1.77;;;6.50;83.10;;;;;;5014625;28;20022;-30
2022/01/17 04:41:35;;;;;;;5.55;1.58;;;6.50;83.20;;;;;;5029859;28;20021;-30
2022/01/17 04:45:07;;;;;;;10.35;1.65;;;6.50;83.30;;;;;;5014821;28;20093;-29
2022/01/17 04:46:47;;;;;;;12.00;2.00;;;6.50;83.30;;;;;;5014540;28;20429;-29
2022/01/17 04:49:13;;;;;;;8.10;1.60;;;6.40;83.40;;;;;;5014439;28;20029;-31
2022/01/17 04:51:38;;;;;;;6.25;1.52;;;6.40;83.50;;;;;;5014743;28;20386;-29
2022/01/17 04:54:40;;;;;;;9.75;2.22;;;6.50;83.60;;;;;;5014628;28;20021;-34
2022/01/17 04:56:55;;;;;;;7.85;1.55;;;6.50;83.60;;;;;;5012247;28;20048;-29
2022/01/17 04:59:21;;;;;;;9.00;2.20;;;6.50;83.60;;;;;;5014521;28;20445;-29
2022/01/17 05:01:47;;;;;;;9.90;1.88;;;6.60;83.60;;;;;;5014057;28;20109;-30
2022/01/17 05:04:12;;;;;;;9.70;2.03;;;6.60;83.70;;;;;;5014040;28;20034;-29
2022/01/17 05:06:38;;;;;;;9.55;2.15;;;6.60;83.80;;;;;;5014145;28;20471;-30
2022/01/17 05:09:04;;;;;;;9.75;1.67;;;6.60;83.90;;;;;;5014338;28;20093;-30
2022/01/17 05:11:31;;;;;;;11.20;1.92;;;6.60;83.80;;;;;;5014096;28;20018;-35
2022/01/17 05:13:57;;;;;;;8.45;2.05;;;6.70;83.90;;;;;;5014341;28;20049;-31
2022/01/17 05:16:31;;;;;;;5.82;1.90;;;6.60;83.90;;;;;;5013814;28;20022;-30
2022/01/17 05:21:41;;;;;;;7.40;1.88;;;6.60;84.20;;;;;;5014195;28;20037;-31
2022/01/17 05:24:07;;;;;;;6.47;1.65;;;6.50;84.40;;;;;;5013804;28;20029;-28
2022/01/17 05:26:32;;;;;;;9.60;2.08;;;6.50;84.50;;;;;;5013875;28;20100;-29
2022/01/17 05:28:58;;;;;;;7.10;1.70;;;6.50;84.60;;;;;;5013746;28;20030;-30
2022/01/17 05:31:23;;;;;;;8.20;1.77;;;6.50;84.80;;;;;;5013673;28;20504;-29
2022/01/17 05:33:49;;;;;;;7.25;1.80;;;6.40;84.80;;;;;;5013636;28;20528;-28
2022/01/17 05:36:17;;;;;;;7.90;1.50;;;6.40;85.00;;;;;;5013564;28;20362;-28
2022/01/17 05:38:43;;;;;;;4.53;1.40;;;6.40;85.10;;;;;;5013917;28;20014;-29
2022/01/17 05:41:08;;;;;;;9.73;1.75;;;6.30;85.10;;;;;;5013529;28;20018;-29
2022/01/17 05:43:34;;;;;;;5.63;1.70;;;6.30;85.20;;;;;;5013526;28;20461;-30
2022/01/17 05:45:59;;;;;;;6.78;1.50;;;6.30;85.30;;;;;;5013496;28;20102;-29
2022/01/17 05:48:25;;;;;;;8.13;1.90;;;6.30;85.40;;;;;;5013386;28;20026;-29
2022/01/17 05:50:50;;;;;;;8.77;2.47;;;6.30;85.40;;;;;;5013705;28;20018;-29
2022/01/17 05:53:16;;;;;;;5.28;1.58;;;6.30;85.50;;;;;;5028615;28;20200;-30
2022/01/17 05:55:42;;;;;;;8.85;2.75;;;6.30;85.50;;;;;;5013311;28;20021;-29
2022/01/17 05:58:07;;;;;;;3.90;1.83;;;6.20;85.60;;;;;;5013341;28;20029;-34
2022/01/17 06:00:33;;;;;;;8.65;2.10;;;6.20;85.70;;;;;;5028516;28;20022;-29
2022/01/17 06:02:59;;;;;;;8.50;2.58;;;6.20;85.80;;;;;;5013350;28;20433;-30
2022/01/17 06:05:24;;;;;;;11.60;1.90;;;6.20;86.00;;;;;;5013194;28;20080;-29
2022/01/17 06:07:50;;;;;;;14.77;3.03;;;6.10;86.00;;;;;;5013265;28;20446;-29
2022/01/17 06:10:16;;;;;;;11.27;2.53;;;6.10;86.30;;;;;;5013251;28;20440;-32
2022/01/17 06:12:41;;;;;;;9.88;2.75;;;6.10;86.40;;;;;;5013545;28;20028;-29
2022/01/17 06:15:07;;;;;;;6.13;2.33;;;6.10;86.70;;;;;;5013017;28;20418;-36
2022/01/17 06:17:33;;;;;;;8.77;2.53;;;6.20;86.70;;;;;;5013482;28;20022;-34
2022/01/17 06:19:59;;;;;;;7.35;2.78;;;6.10;86.70;;;;;;5013070;28;20018;-29
2022/01/17 06:22:24;;;;;;;8.90;2.70;;;6.20;87.00;;;;;;5013141;28;20105;-32
2022/01/17 06:24:50;;;;;;;9.93;2.90;;;6.20;86.90;;;;;;5013012;28;20419;-31
2022/01/17 06:27:16;;;;;;;8.95;2.70;;;6.20;86.90;;;;;;5012978;28;20389;-31
2022/01/17 06:29:42;;;;;;;7.60;3.13;;;6.20;86.90;;;;;;5013299;28;20079;-29
2022/01/17 06:32:08;;;;;;;13.57;3.58;;;6.20;87.10;;;;;;5012750;28;20460;-31
2022/01/17 06:34:33;;;;;;;9.18;3.28;;;6.20;87.10;;;;;;5012742;28;20058;-29
2022/01/17 06:36:59;;;;;;;8.38;3.40;;;6.20;87.70;;;;;;5016084;28;20032;-29
2022/01/17 06:39:25;;;;;;;11.55;3.60;;;6.20;87.20;;;;;;5016886;28;20500;-29
2022/01/17 06:41:50;;;;;;;10.93;3.17;;;6.20;87.20;;;;;;5016848;28;20025;-29
2022/01/17 06:44:17;;;;;;;10.13;3.75;;;6.20;87.30;;;;;;5016817;28;20025;-30
2022/01/17 06:46:42;;;;;;;9.18;3.45;;;6.20;87.30;;;;;;5016776;28;20030;-29
2022/01/17 06:49:08;;;;;;;12.95;4.13;;;6.20;87.40;;;;;;5016663;28;20541;-29
2022/01/17 06:51:35;;;;;;;12.02;4.38;;;6.20;87.50;;;;;;5017006;28;20032;-29
2022/01/17 06:54:00;;;;;;;13.30;4.32;;;6.20;87.50;;;;;;5016538;28;20026;-28
2022/01/17 06:56:26;;;;;;;9.38;3.50;;;6.20;87.50;;;;;;5016364;28;20084;-28
2022/01/17 06:58:52;;;;;;;14.18;5.03;;;6.30;87.60;;;;;;5016556;28;20092;-34
2022/01/17 07:01:21;;;;;;;11.60;4.78;;;6.30;87.60;;;;;;5031625;28;20026;-30
2022/01/17 07:03:49;;;;;;;9.27;4.85;;;6.30;87.60;;;;;;5016259;28;20481;-29
2022/01/17 07:06:16;;;;;;;10.55;5.10;;;6.40;87.60;;;;;;5016265;28;20105;-30
2022/01/17 07:08:43;;;;;;;10.45;6.10;;;6.40;87.50;;;;;;5016224;28;20057;-30
2022/01/17 07:11:08;;;;;;;14.90;6.90;;;6.50;87.50;;;;;;5016522;28;20022;-30
2022/01/17 07:13:34;;;;;;;14.57;6.72;;;6.50;87.60;;;;;;5015061;28;20018;-29
2022/01/17 07:16:00;;;;;;;16.38;6.20;;;6.50;87.60;;;;;;5016197;28;20022;-31
2022/01/17 07:18:26;;;;;;;14.80;6.80;;;6.50;87.60;;;;;;5016337;28;20014;-31
2022/01/17 07:20:51;;;;;;;18.88;6.70;;;6.50;87.70;;;;;;5016138;28;20026;-30
2022/01/17 07:23:17;;;;;;;13.98;7.47;;;6.60;88.40;;;;;;5016334;28;20014;-30
2022/01/17 07:25:42;;;;;;;16.58;8.25;;;6.60;87.90;;;;;;5016049;28;20037;-31
2022/01/17 07:28:09;;;;;;;18.80;8.48;;;6.60;87.90;;;;;;5016189;28;20353;-32
2022/01/17 07:30:35;;;;;;;14.65;7.88;;;6.60;87.90;;;;;;5016092;28;20026;-31
2022/01/17 07:33:02;;;;;;;17.13;7.80;;;6.60;88.60;;;;;;5015764;28;20076;-36
2022/01/17 07:35:28;;;;;;;19.42;9.75;;;6.60;88.00;;;;;;5015665;28;20060;-30
2022/01/17 07:37:54;;;;;;;18.58;8.40;;;6.60;88.30;;;;;;5015778;28;20027;-31
2022/01/17 07:40:19;;;;;;;16.10;9.05;;;6.60;88.10;;;;;;5015758;28;20080;-29
2022/01/17 07:42:45;;;;;;;15.43;8.60;;;6.60;88.20;;;;;;5015818;28;20489;-32
2022/01/17 07:45:14;;;;;;;21.75;9.18;;;6.70;88.30;;;;;;5015638;28;20077;-35
2022/01/17 07:50:22;;;;;;;17.67;9.02;;;6.70;88.30;;;;;;5015998;28;20084;-37
2022/01/17 07:52:49;;;;;;;18.55;9.52;;;6.70;88.40;;;;;;5015485;28;20072;-31
2022/01/17 07:55:15;;;;;;;20.63;8.80;;;6.80;88.50;;;;;;5015475;28;20029;-32
2022/01/17 07:57:41;;;;;;;16.77;9.60;;;6.70;88.40;;;;;;5030744;28;20028;-30
2022/01/17 08:00:09;;;;;;;21.52;10.93;;;6.80;88.50;;;;;;5030619;28;20477;-33
2022/01/17 08:02:35;;;;;;;18.83;9.18;;;6.80;88.60;;;;;;5015548;28;20462;-33
2022/01/17 08:05:01;;;;;;;19.58;9.23;;;6.80;89.20;;;;;;5015376;28;20025;-31
2022/01/17 08:07:26;;;;;;;20.52;10.30;;;6.80;88.60;;;;;;5015476;28;20045;-32
2022/01/17 08:09:52;;;;;;;17.35;9.18;;;6.80;88.70;;;;;;5015278;28;20029;-31
2022/01/17 08:12:17;;;;;;;13.75;8.52;;;6.90;88.70;;;;;;5013905;28;20110;-36
2022/01/17 08:14:43;;;;;;;19.55;9.82;;;6.90;88.60;;;;;;5015049;28;20032;-32
2022/01/17 08:17:10;;;;;;;21.27;9.10;;;6.90;88.60;;;;;;5015326;28;20105;-32
2022/01/17 08:19:36;;;;;;;23.63;10.10;;;6.90;88.60;;;;;;5015117;28;20024;-31
2022/01/17 08:22:04;;;;;;;21.05;8.75;;;7.00;88.60;;;;;;5015035;28;20030;-32
2022/01/17 08:24:30;;;;;;;20.08;9.20;;;6.90;88.60;;;;;;5015034;28;20474;-30
2022/01/17 08:26:57;;;;;;;18.98;9.18;;;6.90;88.70;;;;;;5015026;28;20084;-34
2022/01/17 08:29:25;;;;;;;16.40;8.68;;;7.00;88.70;;;;;;5014847;28;20036;-35
2022/01/17 08:31:51;;;;;;;18.83;8.48;;;7.00;88.60;;;;;;5015020;28;20080;-31
2022/01/17 08:34:17;;;;;;;16.75;8.40;;;7.00;88.60;;;;;;5014613;28;20132;-31
2022/01/17 08:36:43;;;;;;;19.70;8.25;;;7.00;88.60;;;;;;5014869;28;20069;-31
2022/01/17 08:39:10;;;;;;;16.23;8.65;;;7.00;88.70;;;;;;5014544;28;20098;-31
2022/01/17 08:41:36;;;;;;;17.95;8.48;;;7.10;88.60;;;;;;5014933;28;20101;-34
2022/01/17 08:44:02;;;;;;;21.33;9.30;;;7.10;88.50;;;;;;5014748;28;20022;-33
2022/01/17 08:46:28;;;;;;;19.35;7.80;;;7.20;88.40;;;;;;5014830;28;20402;-31
2022/01/17 08:48:54;;;;;;;16.63;7.45;;;7.20;88.20;;;;;;5014524;28;20393;-33
2022/01/17 08:51:20;;;;;;;13.57;6.70;;;7.20;88.10;;;;;;5014793;28;20101;-31
2022/01/17 08:53:46;;;;;;;14.40;6.18;;;7.30;88.20;;;;;;5014488;28;20123;-31
2022/01/17 08:56:11;;;;;;;22.92;7.75;;;7.30;88.10;;;;;;5014498;28;20474;-33
2022/01/17 08:58:38;;;;;;;18.35;6.70;;;7.30;88.00;;;;;;5014149;28;20024;-34
2022/01/17 09:01:04;;;;;;;17.15;7.82;;;7.30;88.10;;;;;;5014340;28;20022;-33
2022/01/17 09:03:29;;;;;;;15.48;7.00;;;7.40;88.00;;;;;;5014109;28;20080;-33
2022/01/17 09:05:55;;;;;;;17.33;6.90;;;7.40;88.00;;;;;;5014460;28;20026;-32
2022/01/17 09:08:22;;;;;;;15.88;6.93;;;7.40;87.90;;;;;;5014367;28;20049;-31
2022/01/17 09:10:49;;;;;;;14.60;6.68;;;7.40;87.90;;;;;;5014315;28;20430;-30
2022/01/17 09:13:15;;;;;;;14.80;6.35;;;7.40;87.90;;;;;;5014038;28;20022;-30
2022/01/17 09:15:41;;;;;;;14.35;6.28;;;7.50;87.90;;;;;;5013939;28;20049;-33
2022/01/17 09:18:06;;;;;;;14.80;6.80;;;7.40;87.80;;;;;;5013887;28;20018;-29
2022/01/17 09:20:34;;;;;;;15.30;6.68;;;7.50;87.90;;;;;;5014041;28;20105;-35
2022/01/17 09:23:02;;;;;;;15.13;5.80;;;7.50;87.80;;;;;;5013912;28;20020;-32
2022/01/17 09:25:28;;;;;;;19.92;6.20;;;7.50;87.80;;;;;;5013831;28;20445;-33
2022/01/17 09:27:53;;;;;;;13.93;6.00;;;7.60;87.90;;;;;;5013810;28;20046;-32
2022/01/17 09:30:19;;;;;;;13.32;5.28;;;7.60;87.70;;;;;;5028959;28;20073;-35
2022/01/17 09:32:46;;;;;;;12.88;5.65;;;7.60;87.60;;;;;;5013753;28;20359;-32
2022/01/17 09:35:12;;;;;;;12.45;5.70;;;7.70;87.60;;;;;;5013461;28;20489;-34
2022/01/17 09:37:39;;;;;;;13.80;4.97;;;7.70;87.60;;;;;;5013874;28;20103;-38
2022/01/17 09:40:07;;;;;;;10.32;4.97;;;7.70;87.40;;;;;;5013931;28;20488;-33
2022/01/17 09:42:37;;;;;;;13.45;5.03;;;7.70;87.40;;;;;;5013534;28;20018;-32
2022/01/17 09:45:09;;;;;;;11.85;4.78;;;7.80;87.40;;;;;;5013500;28;20034;-32
2022/01/17 09:47:37;;;;;;;14.25;5.38;;;7.80;87.40;;;;;;5013662;28;20026;-31
2022/01/17 09:50:08;;;;;;;9.65;4.57;;;7.80;87.30;;;;;;5013506;28;20076;-32
2022/01/17 09:52:35;;;;;;;16.85;5.38;;;7.90;87.40;;;;;;5013746;28;20366;-32
2022/01/17 09:55:20;;;;;;;13.43;5.20;;;7.90;87.30;;;;;;5013280;28;20033;-31
2022/01/17 09:57:52;;;;;;;19.52;5.03;;;7.90;87.20;;;;;;5013659;28;20026;-31
2022/01/17 10:00:24;;;;;;;15.45;4.82;;;7.90;87.10;;;;;;5013494;28;20022;-30
2022/01/17 10:02:50;;;;;;;11.23;4.50;;;8.00;87.20;;;;;;5013539;28;20037;-29
2022/01/17 10:05:16;;;;;;;13.38;4.80;;;8.00;87.10;;;;;;5013317;28;20470;-31
2022/01/17 10:08:07;;;;;;;11.90;4.57;;;8.00;87.00;;;;;;5013584;28;20084;-30
2022/01/17 10:11:04;;;;;;;15.20;4.60;;;8.10;87.00;;;;;;5012807;28;20028;-30
2022/01/17 10:13:37;;;;;;;12.75;4.07;;;8.10;86.90;;;;;;5012522;28;20504;-31
2022/01/17 10:16:06;;;;;;;11.70;3.88;;;8.10;86.90;;;;;;5013324;28;20381;-30
2022/01/17 10:18:39;;;;;;;11.50;4.00;;;8.10;86.90;;;;;;5013398;28;20053;-31
2022/01/17 10:21:27;;;;;;;15.13;4.95;;;8.10;86.90;;;;;;5013400;28;20100;-30
2022/01/17 10:37:13;;;;;;;17.38;4.80;;;8.30;87.00;;;;;;5013269;28;20045;-33
2022/01/17 10:39:51;;;;;;;13.57;4.88;;;8.30;86.90;;;;;;5013013;28;20034;-34
2022/01/17 10:42:23;;;;;;;11.15;4.35;;;8.30;86.90;;;;;;5013059;28;20042;-41
2022/01/17 10:44:49;;;;;;;19.67;3.58;;;8.30;86.90;;;;;;5012948;28;20026;-35
2022/01/17 10:47:37;;;;;;;10.25;3.10;;;8.40;86.90;;;;;;5012897;28;20483;-31
2022/01/17 10:50:07;;;;;;;12.70;3.30;;;8.40;87.00;;;;;;5013043;28;20033;-30
2022/01/17 10:52:40;;;;;;;13.05;3.63;;;8.40;87.00;;;;;;5012913;28;20033;-37
2022/01/17 10:55:11;;;;;;;14.90;3.10;;;8.50;87.00;;;;;;5012739;28;20029;-35
2022/01/17 10:57:40;;;;;;;11.20;3.20;;;8.50;86.90;;;;;;5013007;28;20501;-31
2022/01/17 11:00:12;;;;;;;12.90;3.80;;;8.60;86.90;;;;;;5012798;28;20046;-32
2022/01/17 11:02:39;;;;;;;16.40;3.50;;;8.60;86.70;;;;;;5012966;28;20056;-31
2022/01/17 11:05:07;;;;;;;13.52;3.78;;;8.70;86.70;;;;;;5012823;28;20058;-31
2022/01/17 11:07:39;;;;;;;13.40;3.65;;;8.60;86.70;;;;;;5013047;28;20030;-31
2022/01/17 11:10:08;;;;;;;13.93;3.95;;;8.70;86.70;;;;;;5012967;28;20478;-32
2022/01/17 11:12:34;;;;;;;16.92;3.30;;;8.70;86.70;;;;;;5013054;28;20480;-30
2022/01/17 11:14:59;;;;;;;11.88;3.55;;;8.70;86.70;;;;;;5012736;28;20113;-33
2022/01/17 11:17:37;;;;;;;11.43;3.10;;;8.80;86.80;;;;;;5012606;28;20153;-31
2022/01/17 11:20:08;;;;;;;14.93;3.08;;;8.80;86.70;;;;;;5012661;28;20390;-30
2022/01/17 11:22:42;;;;;;;13.25;3.42;;;8.90;86.60;;;;;;5014749;28;20033;-31
2022/01/17 11:25:11;;;;;;;15.82;3.38;;;9.00;86.60;;;;;;5016374;28;20018;-31
2022/01/17 11:27:37;;;;;;;13.43;3.13;;;9.00;86.40;;;;;;5016205;28;20033;-34
2022/01/17 11:30:04;;;;;;;13.65;3.10;;;9.00;86.40;;;;;;5016041;28;20029;-31
2022/01/17 11:32:30;;;;;;;11.20;3.00;;;8.90;86.40;;;;;;5015904;28;20032;-31
2022/01/17 11:34:58;;;;;;;11.27;3.22;;;9.00;86.40;;;;;;5015741;28;20450;-30
2022/01/17 11:37:26;;;;;;;12.70;3.42;;;9.00;86.50;;;;;;5015800;28;20077;-31
2022/01/17 11:39:54;;;;;;;13.13;3.50;;;9.10;86.40;;;;;;5015876;28;20562;-32
2022/01/17 11:42:42;;;;;;;15.40;3.10;;;9.10;86.30;;;;;;5015698;28;20474;-31
2022/01/17 11:45:23;;;;;;;17.88;3.58;;;9.10;86.30;;;;;;5015687;28;20022;-32
2022/01/17 11:47:48;;;;;;;14.60;3.08;;;9.20;86.20;;;;;;5015916;28;20037;-32
2022/01/17 11:50:42;;;;;;;13.70;3.05;;;9.20;86.20;;;;;;5014347;28;20022;-32
2022/01/17 11:53:10;;;;;;;13.70;2.78;;;9.30;86.20;;;;;;5015549;28;20050;-33
2022/01/17 11:55:39;;;;;;;17.77;3.10;;;9.30;86.20;;;;;;5015523;28;20034;-31
2022/01/17 11:58:31;;;;;;;11.60;3.10;;;9.30;86.00;;;;;;5015523;28;20018;-32
2022/01/17 12:00:57;;;;;;;9.27;2.65;;;9.40;85.90;;;;;;5009174;28;20498;-33
2022/01/17 12:03:25;;;;;;;12.32;3.47;;;9.40;85.90;;;;;;5015382;28;20026;-31
2022/01/17 12:05:52;;;;;;;13.57;2.55;;;9.50;85.90;;;;;;5015322;28;20018;-32
2022/01/17 12:08:20;;;;;;;13.55;2.72;;;9.50;85.90;;;;;;5015469;28;20561;-31
2022/01/17 12:10:57;;;;;;;11.75;2.83;;;9.50;85.70;;;;;;5015274;28;20048;-33
2022/01/17 12:13:42;;;;;;;12.15;2.40;;;9.50;85.60;;;;;;5015148;28;20113;-32
2022/01/17 12:18:46;;;;;;;13.70;3.13;;;9.60;85.50;;;;;;5015269;28;20033;-40
2022/01/17 12:21:36;;;;;;;18.02;3.53;;;9.60;85.40;;;;;;5014944;28;20022;-33
2022/01/17 12:24:25;;;;;;;17.10;2.97;;;9.60;85.30;;;;;;5015218;28;20407;-31
2022/01/17 12:27:02;;;;;;;16.55;3.22;;;9.70;85.20;;;;;;5006065;28;20042;-31
2022/01/17 12:29:51;;;;;;;11.77;3.13;;;9.70;84.80;;;;;;5014825;28;20076;-32
2022/01/17 12:32:26;;;;;;;18.80;3.38;;;9.70;84.50;;;;;;5015021;28;20026;-32
2022/01/17 12:34:58;;;;;;;18.45;3.10;;;9.70;84.60;;;;;;5014077;28;20071;-31
2022/01/17 12:37:31;;;;;;;17.58;3.00;;;9.70;84.50;;;;;;5015032;28;20386;-33
2022/01/17 12:40:11;;;;;;;18.30;3.30;;;9.70;84.50;;;;;;5014952;28;20022;-32
2022/01/17 12:42:59;;;;;;;12.73;2.55;;;9.70;84.50;;;;;;5014969;28;20509;-33
2022/01/17 12:45:31;;;;;;;16.13;2.90;;;9.80;84.50;;;;;;5014571;28;20033;-32
2022/01/17 12:47:59;;;;;;;18.75;3.40;;;9.80;84.40;;;;;;5029814;28;20117;-33
2022/01/17 12:50:28;;;;;;;14.93;3.10;;;9.80;84.00;;;;;;5014778;28;20137;-33
2022/01/17 12:52:56;;;;;;;21.58;3.28;;;9.80;84.30;;;;;;5014559;28;20438;-31
2022/01/17 12:55:24;;;;;;;13.48;2.70;;;9.80;84.30;;;;;;5014623;28;20030;-38
2022/01/17 12:57:50;;;;;;;20.92;3.50;;;9.80;84.30;;;;;;5014445;28;20022;-34
2022/01/17 13:00:18;;;;;;;19.85;4.18;;;9.80;84.00;;;;;;5014473;28;20049;-32
2022/01/17 13:02:49;;;;;;;17.73;3.35;;;9.80;83.80;;;;;;5014430;28;20038;-32
2022/01/17 13:05:20;;;;;;;15.82;2.90;;;9.90;84.10;;;;;;5014315;28;20080;-35
2022/01/17 13:07:46;;;;;;;17.95;3.15;;;9.90;84.00;;;;;;5014377;28;20052;-33
2022/01/17 13:10:11;;;;;;;17.83;3.55;;;9.90;83.40;;;;;;5014153;28;20055;-32
2022/01/17 13:12:41;;;;;;;18.27;3.88;;;9.90;83.70;;;;;;5014124;28;20029;-34
2022/01/17 13:15:08;;;;;;;16.52;3.08;;;9.90;83.70;;;;;;5014128;28;20033;-35
2022/01/17 13:17:35;;;;;;;18.40;3.33;;;9.90;83.70;;;;;;5014195;28;20026;-31
2022/01/17 13:20:01;;;;;;;14.85;2.95;;;9.90;83.80;;;;;;5014066;28;20082;-31
2022/01/17 13:22:36;;;;;;;15.98;3.20;;;10.00;83.80;;;;;;5029073;28;20390;-36
2022/01/17 13:25:03;;;;;;;17.10;3.47;;;10.00;83.70;;;;;;5013863;28;20014;-37
2022/01/17 13:27:32;;;;;;;20.95;3.10;;;10.00;83.60;;;;;;5013908;28;20105;-32
2022/01/17 13:29:58;;;;;;;23.10;4.07;;;9.90;83.40;;;;;;5013970;28;20018;-33